Time;durP1;ratioP1;P1;durP2;ratioP2;P2;SDS_P1;SDS_P2;PMS_P1;PMS_P2;Temp;Humidity;BMP_temperature;BMP_pressure;BME280_temperature;BME280_humidity;BME280_pressure;Samples;Min_cycle;Max_cycle;Signal;HPM_P1;HPM_P2
2021/04/02 00:01:26;;;;;;;13.30;5.47;;;;;;;;;;5012663;28;20022;-59
2021/04/02 00:03:51;;;;;;;9.33;3.77;;;;;;;;;;5012715;28;20050;-59
2021/04/02 00:06:18;;;;;;;9.83;4.37;;;;;;;;;;5011502;28;20125;-58
2021/04/02 00:08:43;;;;;;;16.60;4.30;;;;;;;;;;5011724;28;20034;-58
2021/04/02 00:11:10;;;;;;;18.87;4.60;;;;;;;;;;5013029;28;20393;-59
2021/04/02 00:13:35;;;;;;;;;;;;;;;;;;5011540;28;20065;-60
2021/04/02 00:16:01;;;;;;;17.90;4.30;;;;;;;;;;5012682;28;19916;-59
2021/04/02 00:18:27;;;;;;;16.37;5.20;;;;;;;;;;5012189;28;20390;-60
2021/04/02 00:20:54;;;;;;;12.02;4.32;;;;;;;;;;5013289;28;20040;-58
2021/04/02 00:23:20;;;;;;;14.80;4.73;;;;;;;;;;5018687;28;20048;-58
2021/04/02 00:25:45;;;;;;;20.67;4.60;;;;;;;;;;5021909;28;20587;-59
2021/04/02 00:28:10;;;;;;;17.67;4.13;;;;;;;;;;5022607;28;20025;-58
2021/04/02 00:30:38;;;;;;;14.43;4.83;;;;;;;;;;5020286;28;20104;-58
2021/04/02 00:33:04;;;;;;;19.25;4.82;;;;;;;;;;5022450;28;20042;-58
2021/04/02 00:35:29;;;;;;;12.60;3.92;;;;;;;;;;5021511;28;20104;-57
2021/04/02 00:37:55;;;;;;;10.73;4.37;;;;;;;;;;5020819;28;20030;-58
2021/04/02 00:40:25;;;;;;;21.40;5.27;;;;;;;;;;5019606;28;20038;-58
2021/04/02 00:42:50;;;;;;;10.45;4.32;;;;;;;;;;5020853;28;20040;-59
2021/04/02 00:45:20;;;;;;;15.50;4.43;;;;;;;;;;5022653;28;20104;-58
2021/04/02 00:47:49;;;;;;;15.80;4.78;;;;;;;;;;5020879;28;20128;-58
2021/04/02 00:50:21;;;;;;;16.95;5.13;;;;;;;;;;5020654;28;20044;-58
2021/04/02 00:52:46;;;;;;;16.70;4.20;;;;;;;;;;5017412;28;20068;-58
2021/04/02 00:55:12;;;;;;;17.17;4.60;;;;;;;;;;5018105;28;20029;-59
2021/04/02 00:57:38;;;;;;;11.10;4.20;;;;;;;;;;5018798;28;20087;-58
2021/04/02 01:00:06;;;;;;;15.60;3.30;;;;;;;;;;5044771;28;20029;-58
2021/04/02 01:02:31;;;;;;;15.80;3.88;;;;;;;;;;5021724;28;20029;-58
2021/04/02 01:04:57;;;;;;;18.80;3.30;;;;;;;;;;5036016;28;20030;-58
2021/04/02 01:07:22;;;;;;;14.25;3.17;;;;;;;;;;5019837;28;20013;-58
2021/04/02 01:09:48;;;;;;;11.90;4.10;;;;;;;;;;5031278;28;20029;-59
2021/04/02 01:12:14;;;;;;;8.53;3.60;;;;;;;;;;5011426;28;20692;-58
2021/04/02 01:14:40;;;;;;;12.40;3.50;;;;;;;;;;5029077;28;20060;-58
2021/04/02 01:17:06;;;;;;;11.07;3.40;;;;;;;;;;5019999;28;20122;-58
2021/04/02 01:19:35;;;;;;;10.10;3.53;;;;;;;;;;5019759;28;20268;-58
2021/04/02 01:22:05;;;;;;;13.20;3.35;;;;;;;;;;5017331;28;20053;-58
2021/04/02 01:24:59;;;;;;;15.77;4.43;;;;;;;;;;5017048;28;20087;-56
2021/04/02 01:27:31;;;;;;;14.90;4.18;;;;;;;;;;4988827;28;20144;-58
2021/04/02 01:30:02;;;;;;;9.68;3.25;;;;;;;;;;5014322;28;20030;-58
2021/04/02 01:32:41;;;;;;;13.05;3.72;;;;;;;;;;5043835;28;20446;-57
2021/04/02 01:35:18;;;;;;;10.52;4.25;;;;;;;;;;5035497;28;20036;-59
2021/04/02 01:37:50;;;;;;;8.55;4.20;;;;;;;;;;5018709;28;20100;-59
2021/04/02 01:40:16;;;;;;;12.20;3.72;;;;;;;;;;5043167;28;20123;-59
2021/04/02 01:42:42;;;;;;;12.32;3.63;;;;;;;;;;5012216;28;20068;-61
2021/04/02 01:45:10;;;;;;;9.17;4.07;;;;;;;;;;5019186;28;20037;-58
2021/04/02 01:47:37;;;;;;;8.52;3.13;;;;;;;;;;5041785;28;20305;-57
2021/04/02 01:50:03;;;;;;;14.35;3.63;;;;;;;;;;5019048;28;20061;-60
2021/04/02 01:52:29;;;;;;;13.65;3.72;;;;;;;;;;5020089;28;20085;-58
2021/04/02 01:54:55;;;;;;;14.85;4.05;;;;;;;;;;5019140;28;20055;-58
2021/04/02 01:57:23;;;;;;;12.40;3.63;;;;;;;;;;5036219;28;20529;-58
2021/04/02 01:59:51;;;;;;;7.10;3.45;;;;;;;;;;5014344;28;20247;-58
2021/04/02 02:02:18;;;;;;;9.73;3.22;;;;;;;;;;5013398;28;20076;-58
2021/04/02 02:04:46;;;;;;;11.93;3.33;;;;;;;;;;5012767;28;20034;-59
2021/04/02 02:07:12;;;;;;;15.15;3.80;;;;;;;;;;5015591;28;20038;-59
2021/04/02 02:10:00;;;;;;;11.20;3.50;;;;;;;;;;5023846;28;20049;-59
2021/04/02 02:12:31;;;;;;;17.70;4.13;;;;;;;;;;5034030;28;20063;-59
2021/04/02 02:15:05;;;;;;;9.27;2.75;;;;;;;;;;5029567;28;20021;-59
2021/04/02 02:17:35;;;;;;;9.50;4.40;;;;;;;;;;5017555;28;20033;-59
2021/04/02 02:20:04;;;;;;;13.57;3.72;;;;;;;;;;5024183;28;20104;-59
2021/04/02 02:22:31;;;;;;;7.25;3.22;;;;;;;;;;5006876;28;20029;-59
2021/04/02 02:25:04;;;;;;;13.32;3.38;;;;;;;;;;5003072;28;20026;-59
2021/04/02 02:27:30;;;;;;;12.52;3.28;;;;;;;;;;5039056;28;20037;-58
2021/04/02 02:29:56;;;;;;;8.97;3.10;;;;;;;;;;5011822;28;20030;-58
2021/04/02 02:32:21;;;;;;;10.57;3.47;;;;;;;;;;5014274;28;20017;-58
2021/04/02 02:34:47;;;;;;;9.75;3.10;;;;;;;;;;5013705;28;20038;-58
2021/04/02 02:37:12;;;;;;;16.07;3.53;;;;;;;;;;5014372;28;20122;-60
2021/04/02 02:39:47;;;;;;;11.52;3.00;;;;;;;;;;5013968;28;20030;-59
2021/04/02 02:42:13;;;;;;;9.82;3.08;;;;;;;;;;5013054;28;20034;-59
2021/04/02 02:44:38;;;;;;;10.70;2.83;;;;;;;;;;5013211;28;20092;-59
2021/04/02 02:47:05;;;;;;;6.53;3.00;;;;;;;;;;5013658;28;20596;-58
2021/04/02 02:49:33;;;;;;;11.02;3.50;;;;;;;;;;5012910;28;20030;-59
2021/04/02 02:52:00;;;;;;;10.32;4.50;;;;;;;;;;5013491;28;20462;-58
2021/04/02 02:54:30;;;;;;;14.65;3.78;;;;;;;;;;5014221;28;20046;-58
2021/04/02 02:56:57;;;;;;;16.52;3.60;;;;;;;;;;5012249;28;20038;-58
2021/04/02 02:59:24;;;;;;;11.80;4.05;;;;;;;;;;5013062;28;20034;-59
2021/04/02 03:01:51;;;;;;;11.30;3.35;;;;;;;;;;5013645;28;20038;-58
2021/04/02 03:04:20;;;;;;;14.35;3.90;;;;;;;;;;5014093;28;20072;-58
2021/04/02 03:06:47;;;;;;;11.35;2.85;;;;;;;;;;5013501;28;20096;-57
2021/04/02 03:09:15;;;;;;;11.65;3.20;;;;;;;;;;5011529;28;20034;-58
2021/04/02 03:11:42;;;;;;;7.65;2.72;;;;;;;;;;5012302;28;20033;-58
2021/04/02 03:14:08;;;;;;;11.50;3.53;;;;;;;;;;5011880;28;20374;-58
2021/04/02 03:16:34;;;;;;;;;;;;;;;;;;5012923;28;20398;-59
2021/04/02 03:19:01;;;;;;;8.68;3.63;;;;;;;;;;5011883;28;19905;-58
2021/04/02 03:21:29;;;;;;;9.55;3.25;;;;;;;;;;5012406;28;20038;-58
2021/04/02 03:24:01;;;;;;;9.13;3.40;;;;;;;;;;5027163;28;20048;-58
2021/04/02 03:26:26;;;;;;;12.10;3.10;;;;;;;;;;5028879;28;20030;-59
2021/04/02 03:28:53;;;;;;;22.60;4.95;;;;;;;;;;5011626;28;20034;-57
2021/04/02 03:31:22;;;;;;;13.07;3.85;;;;;;;;;;5028603;28;20036;-57
2021/04/02 03:33:50;;;;;;;12.63;5.05;;;;;;;;;;5028029;28;20034;-56
2021/04/02 03:36:20;;;;;;;14.98;3.85;;;;;;;;;;4996509;28;20433;-58
2021/04/02 03:38:48;;;;;;;12.63;4.40;;;;;;;;;;5028160;28;20037;-59
2021/04/02 03:41:23;;;;;;;16.67;5.70;;;;;;;;;;5028669;28;20520;-59
2021/04/02 03:43:50;;;;;;;10.88;4.70;;;;;;;;;;4994163;28;20038;-57
2021/04/02 03:46:17;;;;;;;18.83;5.22;;;;;;;;;;4992387;28;20038;-60
2021/04/02 03:48:48;;;;;;;16.23;6.03;;;;;;;;;;4991947;28;20112;-58
2021/04/02 03:51:15;;;;;;;15.80;6.35;;;;;;;;;;4991629;28;20336;-59
2021/04/02 03:53:45;;;;;;;13.80;4.50;;;;;;;;;;4991752;28;20161;-58
2021/04/02 03:56:15;;;;;;;13.40;4.47;;;;;;;;;;4991422;28;20053;-58
2021/04/02 03:58:42;;;;;;;11.80;5.13;;;;;;;;;;4993643;28;20030;-58
2021/04/02 04:01:09;;;;;;;18.17;4.50;;;;;;;;;;4991217;28;20018;-57
2021/04/02 04:03:40;;;;;;;11.32;5.60;;;;;;;;;;5007956;28;20042;-58
2021/04/02 04:06:08;;;;;;;15.75;5.03;;;;;;;;;;5007489;28;20062;-57
2021/04/02 04:08:36;;;;;;;12.95;4.90;;;;;;;;;;4991762;28;20034;-59
2021/04/02 04:11:07;;;;;;;10.10;4.05;;;;;;;;;;4993091;28;20106;-58
2021/04/02 04:13:34;;;;;;;9.35;4.20;;;;;;;;;;5008115;28;20129;-59
2021/04/02 04:16:02;;;;;;;16.98;6.35;;;;;;;;;;4992617;28;20026;-59
2021/04/02 04:18:29;;;;;;;11.13;5.22;;;;;;;;;;4993070;28;20062;-59
2021/04/02 04:20:58;;;;;;;16.85;4.32;;;;;;;;;;5007066;28;20038;-58
2021/04/02 04:23:38;;;;;;;13.88;5.03;;;;;;;;;;4992059;28;20035;-59
2021/04/02 04:26:05;;;;;;;17.08;4.00;;;;;;;;;;5007499;28;20038;-58
2021/04/02 04:28:31;;;;;;;11.63;5.00;;;;;;;;;;4993077;28;20081;-59
2021/04/02 04:31:02;;;;;;;19.98;5.03;;;;;;;;;;4992324;28;20034;-58
2021/04/02 04:33:28;;;;;;;16.75;4.65;;;;;;;;;;4991621;28;20455;-59
2021/04/02 04:35:54;;;;;;;18.83;5.20;;;;;;;;;;5007424;28;20038;-60
2021/04/02 04:38:20;;;;;;;18.10;5.88;;;;;;;;;;4991990;28;20543;-58
2021/04/02 04:40:47;;;;;;;18.80;6.25;;;;;;;;;;5007665;28;20038;-58
2021/04/02 04:43:13;;;;;;;12.73;3.97;;;;;;;;;;4992224;28;20139;-58
2021/04/02 04:45:39;;;;;;;12.97;4.33;;;;;;;;;;4992994;28;20034;-59
2021/04/02 04:48:05;;;;;;;19.58;5.03;;;;;;;;;;4991541;28;20724;-59
2021/04/02 04:50:30;;;;;;;14.98;4.40;;;;;;;;;;4975176;28;20045;-59
2021/04/02 04:53:00;;;;;;;11.55;4.88;;;;;;;;;;4992622;28;20038;-59
2021/04/02 04:55:26;;;;;;;15.90;5.13;;;;;;;;;;4992564;28;20053;-59
2021/04/02 04:57:53;;;;;;;15.00;4.57;;;;;;;;;;4991360;28;20093;-59
2021/04/02 05:00:19;;;;;;;15.57;4.50;;;;;;;;;;4992347;28;20276;-59
2021/04/02 05:02:46;;;;;;;22.08;4.05;;;;;;;;;;4991192;28;20065;-59
2021/04/02 05:05:11;;;;;;;;;;;;;;;;;;4992312;28;20114;-60
2021/04/02 05:07:38;;;;;;;20.37;4.47;;;;;;;;;;4992422;28;20000;-59
2021/04/02 05:10:04;;;;;;;13.18;4.43;;;;;;;;;;4990618;28;20034;-60
2021/04/02 05:12:30;;;;;;;13.33;3.83;;;;;;;;;;5007469;28;20042;-59
2021/04/02 05:14:56;;;;;;;13.82;4.13;;;;;;;;;;4992464;28;20486;-59
2021/04/02 05:17:22;;;;;;;16.17;4.22;;;;;;;;;;4990271;28;20145;-59
2021/04/02 05:19:48;;;;;;;20.97;4.77;;;;;;;;;;4992529;28;20526;-60
2021/04/02 05:22:14;;;;;;;12.00;3.95;;;;;;;;;;5006710;28;20041;-59
2021/04/02 05:24:39;;;;;;;13.67;4.87;;;;;;;;;;4991087;28;20422;-60
2021/04/02 05:27:05;;;;;;;18.37;5.60;;;;;;;;;;4974160;28;20126;-58
2021/04/02 05:29:31;;;;;;;17.85;4.88;;;;;;;;;;4992132;28;20039;-59
2021/04/02 05:31:56;;;;;;;9.83;4.40;;;;;;;;;;4991396;28;20056;-58
2021/04/02 05:34:21;;;;;;;14.73;4.60;;;;;;;;;;4991290;28;20076;-59
2021/04/02 05:36:47;;;;;;;13.30;4.53;;;;;;;;;;4992136;28;20038;-59
2021/04/02 05:39:12;;;;;;;10.73;4.30;;;;;;;;;;4991292;28;20339;-58
2021/04/02 05:41:45;;;;;;;15.20;4.60;;;;;;;;;;4992819;28;20505;-59
2021/04/02 05:44:11;;;;;;;18.17;5.75;;;;;;;;;;4991467;28;20133;-58
2021/04/02 05:46:36;;;;;;;11.88;3.97;;;;;;;;;;4992019;28;20106;-59
2021/04/02 05:49:05;;;;;;;16.00;4.93;;;;;;;;;;4991852;28;20058;-59
2021/04/02 05:51:31;;;;;;;19.52;4.65;;;;;;;;;;4992079;28;20026;-58
2021/04/02 05:53:56;;;;;;;13.50;5.17;;;;;;;;;;4990621;28;20049;-58
2021/04/02 05:56:22;;;;;;;11.67;3.93;;;;;;;;;;4991680;28;20034;-58
2021/04/02 05:58:49;;;;;;;16.13;4.03;;;;;;;;;;4991836;28;20077;-59
2021/04/02 06:01:14;;;;;;;18.95;4.35;;;;;;;;;;4991294;28;20085;-57
2021/04/02 06:03:40;;;;;;;14.73;4.17;;;;;;;;;;4990473;28;20459;-58
2021/04/02 06:06:08;;;;;;;11.17;4.23;;;;;;;;;;4991235;28;20441;-58
2021/04/02 06:08:34;;;;;;;14.90;4.85;;;;;;;;;;5006573;28;20264;-59
2021/04/02 06:10:59;;;;;;;12.45;3.90;;;;;;;;;;4991434;28;20034;-59
2021/04/02 06:13:24;;;;;;;17.40;3.97;;;;;;;;;;4991270;28;20057;-58
2021/04/02 06:15:50;;;;;;;15.93;3.97;;;;;;;;;;5006756;28;20026;-58
2021/04/02 06:18:16;;;;;;;13.35;3.72;;;;;;;;;;4989852;28;20034;-58
2021/04/02 06:20:43;;;;;;;15.00;3.70;;;;;;;;;;4974151;28;20444;-59
2021/04/02 06:23:15;;;;;;;12.43;3.90;;;;;;;;;;4989414;28;20034;-58
2021/04/02 06:25:46;;;;;;;15.50;3.45;;;;;;;;;;4991536;28;20045;-59
2021/04/02 06:28:12;;;;;;;9.55;3.28;;;;;;;;;;4990959;28;20064;-58
2021/04/02 06:30:39;;;;;;;12.48;3.53;;;;;;;;;;4991581;28;20053;-60
2021/04/02 06:33:05;;;;;;;18.65;4.70;;;;;;;;;;5007253;28;20037;-59
2021/04/02 06:35:31;;;;;;;10.73;3.75;;;;;;;;;;5018922;28;20437;-59
2021/04/02 06:37:56;;;;;;;19.60;4.83;;;;;;;;;;5010181;28;20033;-59
2021/04/02 06:40:22;;;;;;;12.17;3.27;;;;;;;;;;5029821;28;20021;-59
2021/04/02 06:42:48;;;;;;;10.32;3.83;;;;;;;;;;5031660;28;20041;-60
2021/04/02 06:45:14;;;;;;;19.98;3.15;;;;;;;;;;5032381;28;20029;-59
2021/04/02 06:47:40;;;;;;;17.40;3.60;;;;;;;;;;5033864;28;20378;-59
2021/04/02 06:50:16;;;;;;;10.65;3.30;;;;;;;;;;5033794;28;20068;-59
2021/04/02 06:52:41;;;;;;;12.38;3.38;;;;;;;;;;5033861;28;20029;-58
2021/04/02 06:55:08;;;;;;;19.23;4.83;;;;;;;;;;5034221;28;20437;-58
2021/04/02 06:57:33;;;;;;;;;;;;;;;;;;5033748;28;20128;-59
2021/04/02 06:59:59;;;;;;;12.63;3.53;;;;;;;;;;5033698;28;20436;-57
2021/04/02 07:02:26;;;;;;;15.20;3.78;;;;;;;;;;5032097;28;20030;-59
2021/04/02 07:04:53;;;;;;;11.48;3.05;;;;;;;;;;5033794;28;20033;-58
2021/04/02 07:07:18;;;;;;;12.00;3.53;;;;;;;;;;5048629;28;20029;-58
2021/04/02 07:09:44;;;;;;;12.40;2.10;;;;;;;;;;5031089;28;20036;-59
2021/04/02 07:12:11;;;;;;;8.70;2.63;;;;;;;;;;5031786;28;20278;-59
2021/04/02 07:14:37;;;;;;;16.17;2.97;;;;;;;;;;5028640;28;20120;-59
2021/04/02 07:17:03;;;;;;;15.57;4.13;;;;;;;;;;5012404;28;20026;-59
2021/04/02 07:19:29;;;;;;;6.17;2.20;;;;;;;;;;5012974;28;20393;-58
2021/04/02 07:21:54;;;;;;;12.50;3.40;;;;;;;;;;5013802;28;20033;-58
2021/04/02 07:24:20;;;;;;;5.40;1.90;;;;;;;;;;5028254;28;20042;-58
2021/04/02 07:26:50;;;;;;;14.73;3.53;;;;;;;;;;5013873;28;20267;-59
2021/04/02 07:29:17;;;;;;;8.27;3.22;;;;;;;;;;5013515;28;20045;-58
2021/04/02 07:31:43;;;;;;;12.98;4.50;;;;;;;;;;5013454;28;20025;-59
2021/04/02 07:34:09;;;;;;;9.07;1.70;;;;;;;;;;5013688;28;20061;-60
2021/04/02 07:36:35;;;;;;;8.30;2.50;;;;;;;;;;5012802;28;20267;-59
2021/04/02 07:39:02;;;;;;;6.88;1.70;;;;;;;;;;5013395;28;20038;-60
2021/04/02 07:41:28;;;;;;;12.50;2.22;;;;;;;;;;5012891;28;20022;-59
2021/04/02 07:43:56;;;;;;;9.73;1.67;;;;;;;;;;5011821;28;20538;-59
2021/04/02 07:46:27;;;;;;;11.13;2.33;;;;;;;;;;5012572;28;20029;-59
2021/04/02 07:49:09;;;;;;;13.73;2.65;;;;;;;;;;5013259;28;20046;-59
2021/04/02 07:51:48;;;;;;;5.53;1.95;;;;;;;;;;5011462;28;20026;-58
2021/04/02 07:54:13;;;;;;;6.90;2.20;;;;;;;;;;5012238;28;20038;-59
2021/04/02 07:56:39;;;;;;;13.80;2.70;;;;;;;;;;5012499;28;20470;-59
2021/04/02 07:59:05;;;;;;;9.57;2.30;;;;;;;;;;5012976;28;20386;-59
2021/04/02 08:01:31;;;;;;;13.10;2.00;;;;;;;;;;5011901;28;20348;-58
2021/04/02 08:04:00;;;;;;;11.65;2.70;;;;;;;;;;5012853;28;20052;-60
2021/04/02 08:06:30;;;;;;;9.70;2.55;;;;;;;;;;5011876;28;20048;-58
2021/04/02 08:08:56;;;;;;;7.45;2.33;;;;;;;;;;5012662;28;20426;-59
2021/04/02 08:11:25;;;;;;;6.30;1.65;;;;;;;;;;5013025;28;20075;-58
2021/04/02 08:13:58;;;;;;;6.38;1.77;;;;;;;;;;5013453;28;20113;-60
2021/04/02 08:16:26;;;;;;;13.57;2.45;;;;;;;;;;5012929;28;20034;-59
2021/04/02 08:19:04;;;;;;;10.77;1.83;;;;;;;;;;5012900;28;20026;-60
2021/04/02 08:21:31;;;;;;;10.10;1.60;;;;;;;;;;5027157;28;20133;-59
2021/04/02 08:23:57;;;;;;;7.13;1.80;;;;;;;;;;5011814;28;20048;-59
2021/04/02 08:26:28;;;;;;;5.50;1.65;;;;;;;;;;5011746;28;20030;-58
2021/04/02 08:28:53;;;;;;;6.63;1.63;;;;;;;;;;5012282;28;20110;-60
2021/04/02 08:31:18;;;;;;;6.83;1.70;;;;;;;;;;5012378;28;20548;-58
2021/04/02 08:33:44;;;;;;;4.13;1.57;;;;;;;;;;5011770;28;20295;-59
2021/04/02 08:36:09;;;;;;;10.50;1.63;;;;;;;;;;5027232;28;20068;-59
2021/04/02 08:38:35;;;;;;;7.37;1.70;;;;;;;;;;5011821;28;20045;-59
2021/04/02 08:41:19;;;;;;;7.07;1.73;;;;;;;;;;5012345;28;20819;-61
2021/04/02 08:43:44;;;;;;;6.45;2.00;;;;;;;;;;5011818;28;20372;-59
2021/04/02 08:46:10;;;;;;;7.30;1.50;;;;;;;;;;5015521;28;20040;-59
2021/04/02 08:48:35;;;;;;;4.73;1.40;;;;;;;;;;5031057;28;20057;-59
2021/04/02 08:51:01;;;;;;;4.43;1.40;;;;;;;;;;5031922;28;20477;-60
2021/04/02 08:53:37;;;;;;;8.43;2.00;;;;;;;;;;5046697;28;20049;-58
2021/04/02 08:56:03;;;;;;;6.63;1.45;;;;;;;;;;5032144;28;20112;-59
2021/04/02 08:58:28;;;;;;;8.87;1.53;;;;;;;;;;5030074;28;20141;-58
2021/04/02 09:00:53;;;;;;;13.23;2.13;;;;;;;;;;5031777;28;20025;-59
2021/04/02 09:03:19;;;;;;;11.07;2.70;;;;;;;;;;5031743;28;20121;-59
2021/04/02 09:05:44;;;;;;;7.60;1.37;;;;;;;;;;5030249;28;20034;-60
2021/04/02 09:08:10;;;;;;;9.80;2.40;;;;;;;;;;5031732;28;20053;-60
2021/04/02 09:10:36;;;;;;;12.10;1.90;;;;;;;;;;5030987;28;20048;-60
2021/04/02 09:13:02;;;;;;;10.32;2.38;;;;;;;;;;5030578;28;20079;-58
2021/04/02 09:15:29;;;;;;;5.18;1.45;;;;;;;;;;5030308;28;20045;-59
2021/04/02 09:18:12;;;;;;;8.55;2.38;;;;;;;;;;5030013;28;20033;-59
2021/04/02 09:20:38;;;;;;;11.32;2.20;;;;;;;;;;5044983;28;20033;-59
2021/04/02 09:23:04;;;;;;;8.93;2.67;;;;;;;;;;5027579;28;20040;-59
2021/04/02 09:25:30;;;;;;;8.57;2.50;;;;;;;;;;5009410;28;20117;-58
2021/04/02 09:28:03;;;;;;;8.75;2.58;;;;;;;;;;5026211;28;20029;-59
2021/04/02 09:30:28;;;;;;;4.68;1.75;;;;;;;;;;5014200;28;20034;-59
2021/04/02 09:32:54;;;;;;;6.70;1.90;;;;;;;;;;5030452;28;20033;-58
2021/04/02 09:35:20;;;;;;;11.33;2.10;;;;;;;;;;5031676;28;20339;-58
2021/04/02 09:37:46;;;;;;;11.95;2.22;;;;;;;;;;5031465;28;20029;-59
2021/04/02 09:40:11;;;;;;;5.60;1.70;;;;;;;;;;5030492;28;20439;-60
2021/04/02 09:42:37;;;;;;;10.50;2.40;;;;;;;;;;5030906;28;20107;-60
2021/04/02 09:45:04;;;;;;;9.93;2.65;;;;;;;;;;5029927;28;20032;-59
2021/04/02 09:47:29;;;;;;;9.35;2.20;;;;;;;;;;5031428;28;20112;-58
2021/04/02 09:49:55;;;;;;;9.83;2.00;;;;;;;;;;5028423;28;20135;-61
2021/04/02 09:52:20;;;;;;;9.45;2.88;;;;;;;;;;5029876;28;20033;-59
2021/04/02 09:54:45;;;;;;;7.27;1.90;;;;;;;;;;5030819;28;20037;-59
2021/04/02 09:57:11;;;;;;;6.70;1.87;;;;;;;;;;5029830;28;20021;-58
2021/04/02 09:59:36;;;;;;;8.73;2.03;;;;;;;;;;5030668;28;20018;-59
2021/04/02 10:02:02;;;;;;;8.97;2.10;;;;;;;;;;5031217;28;20151;-58
2021/04/02 10:04:28;;;;;;;5.43;1.88;;;;;;;;;;5031106;28;20141;-60
2021/04/02 10:06:53;;;;;;;6.28;1.40;;;;;;;;;;5031062;28;20033;-59
2021/04/02 10:09:19;;;;;;;4.90;1.60;;;;;;;;;;5031361;28;20042;-59
2021/04/02 10:11:49;;;;;;;6.35;1.40;;;;;;;;;;5030421;28;20036;-60
2021/04/02 10:14:15;;;;;;;8.82;1.85;;;;;;;;;;5030790;28;20033;-59
2021/04/02 10:16:41;;;;;;;9.07;1.77;;;;;;;;;;4999236;28;20034;-58
2021/04/02 10:19:07;;;;;;;13.07;2.50;;;;;;;;;;4995104;28;20041;-58
2021/04/02 10:21:33;;;;;;;10.73;1.92;;;;;;;;;;4994704;28;20033;-59
2021/04/02 10:23:59;;;;;;;6.32;1.58;;;;;;;;;;4993500;28;20026;-59
2021/04/02 10:26:24;;;;;;;;;;;;;;;;;;4995980;28;20030;-59
2021/04/02 10:28:50;;;;;;;8.07;1.40;;;;;;;;;;5000581;28;19910;-60
2021/04/02 10:31:15;;;;;;;5.40;1.83;;;;;;;;;;4997190;28;20074;-59
2021/04/02 10:33:41;;;;;;;10.95;1.80;;;;;;;;;;4994661;28;20105;-58
2021/04/02 10:36:06;;;;;;;12.03;2.40;;;;;;;;;;4994983;28;20026;-59
2021/04/02 10:38:33;;;;;;;10.20;1.80;;;;;;;;;;4995454;28;20035;-60
2021/04/02 10:40:58;;;;;;;7.35;1.50;;;;;;;;;;4994926;28;20030;-60
2021/04/02 10:43:23;;;;;;;4.70;1.20;;;;;;;;;;4995891;28;20537;-58
2021/04/02 10:45:49;;;;;;;7.47;1.85;;;;;;;;;;4995233;28;20471;-58
2021/04/02 10:48:14;;;;;;;4.60;1.60;;;;;;;;;;4997291;28;20061;-59
2021/04/02 10:50:41;;;;;;;10.45;2.50;;;;;;;;;;4997059;28;20454;-59
2021/04/02 10:53:06;;;;;;;6.78;1.85;;;;;;;;;;4997345;28;20474;-59
2021/04/02 10:55:32;;;;;;;13.70;3.17;;;;;;;;;;4999803;28;20073;-59
2021/04/02 10:57:57;;;;;;;8.27;1.42;;;;;;;;;;4999465;28;20466;-59
2021/04/02 11:00:23;;;;;;;12.30;1.90;;;;;;;;;;4998979;28;20088;-59
2021/04/02 11:02:49;;;;;;;7.72;2.47;;;;;;;;;;4997722;28;20418;-59
2021/04/02 11:05:15;;;;;;;10.82;1.90;;;;;;;;;;5014945;28;20042;-60
2021/04/02 11:07:40;;;;;;;6.40;1.97;;;;;;;;;;4999172;28;20029;-60
2021/04/02 11:10:06;;;;;;;6.40;2.30;;;;;;;;;;4999790;28;20755;-59
2021/04/02 11:12:32;;;;;;;11.68;2.25;;;;;;;;;;4999433;28;20038;-60
2021/04/02 11:14:58;;;;;;;8.90;1.40;;;;;;;;;;4999552;28;20463;-59
2021/04/02 11:17:24;;;;;;;8.55;2.13;;;;;;;;;;5000711;28;20053;-58
2021/04/02 11:19:50;;;;;;;6.43;1.63;;;;;;;;;;4999400;28;20030;-60
2021/04/02 11:22:16;;;;;;;10.30;1.85;;;;;;;;;;4999609;28;20434;-58
2021/04/02 11:24:41;;;;;;;11.82;1.98;;;;;;;;;;4999632;28;20117;-59
2021/04/02 11:27:07;;;;;;;8.13;1.80;;;;;;;;;;4996112;28;20027;-59
2021/04/02 11:29:33;;;;;;;7.70;1.67;;;;;;;;;;4997293;28;20455;-59
2021/04/02 11:31:58;;;;;;;7.33;1.97;;;;;;;;;;5002598;28;20128;-58
2021/04/02 11:34:23;;;;;;;9.30;1.73;;;;;;;;;;5003041;28;20078;-60
2021/04/02 11:36:49;;;;;;;5.70;1.43;;;;;;;;;;5013576;28;20038;-58
2021/04/02 11:39:14;;;;;;;5.13;1.47;;;;;;;;;;5019116;28;20053;-58
2021/04/02 11:41:40;;;;;;;4.32;1.17;;;;;;;;;;5019605;28;20502;-59
2021/04/02 11:44:05;;;;;;;11.17;2.70;;;;;;;;;;5033850;28;20292;-59
2021/04/02 11:46:31;;;;;;;12.87;1.80;;;;;;;;;;5022188;28;20059;-60
2021/04/02 11:48:56;;;;;;;11.53;2.03;;;;;;;;;;5020944;28;20315;-58
2021/04/02 11:51:22;;;;;;;10.17;3.70;;;;;;;;;;5017666;28;20034;-58
2021/04/02 11:53:47;;;;;;;8.70;1.77;;;;;;;;;;5018668;28;20033;-57
2021/04/02 11:56:13;;;;;;;9.77;2.22;;;;;;;;;;5018560;28;20048;-58
2021/04/02 11:58:38;;;;;;;8.93;2.20;;;;;;;;;;5018065;28;20034;-59
2021/04/02 12:01:03;;;;;;;6.87;2.07;;;;;;;;;;5017436;28;20026;-59
2021/04/02 12:03:29;;;;;;;7.00;1.60;;;;;;;;;;5018009;28;20046;-59
2021/04/02 12:05:54;;;;;;;8.53;1.77;;;;;;;;;;5018705;28;20394;-58
2021/04/02 12:08:20;;;;;;;8.17;1.80;;;;;;;;;;5018226;28;20263;-59
2021/04/02 12:10:45;;;;;;;6.87;1.67;;;;;;;;;;5019243;28;20039;-61
2021/04/02 12:13:11;;;;;;;4.82;1.08;;;;;;;;;;5016837;28;20034;-57
2021/04/02 12:15:37;;;;;;;6.32;1.77;;;;;;;;;;5017510;28;20038;-58
2021/04/02 12:18:02;;;;;;;5.90;1.17;;;;;;;;;;5015614;28;20076;-59
2021/04/02 12:20:28;;;;;;;9.68;1.88;;;;;;;;;;5019272;28;20431;-60
2021/04/02 12:22:53;;;;;;;6.83;1.53;;;;;;;;;;5033283;28;20037;-59
2021/04/02 12:25:18;;;;;;;5.57;1.30;;;;;;;;;;5022781;28;20059;-59
2021/04/02 12:27:44;;;;;;;7.53;2.40;;;;;;;;;;5022312;28;20029;-59
2021/04/02 12:30:11;;;;;;;3.90;1.20;;;;;;;;;;5019569;28;20731;-60
2021/04/02 12:32:37;;;;;;;11.70;2.57;;;;;;;;;;5018362;28;20323;-59
2021/04/02 12:35:03;;;;;;;14.10;2.53;;;;;;;;;;5018350;28;20350;-61
2021/04/02 12:37:29;;;;;;;6.97;1.65;;;;;;;;;;5021695;28;20080;-59
2021/04/02 12:39:54;;;;;;;10.13;1.92;;;;;;;;;;5020264;28;20060;-59
2021/04/02 12:42:20;;;;;;;8.37;2.10;;;;;;;;;;5020099;28;20029;-59
2021/04/02 12:44:45;;;;;;;12.73;2.53;;;;;;;;;;5034322;28;20058;-60
2021/04/02 12:47:10;;;;;;;5.40;1.20;;;;;;;;;;5018631;28;20038;-61
2021/04/02 12:49:36;;;;;;;4.90;1.30;;;;;;;;;;5017610;28;20049;-60
2021/04/02 12:52:01;;;;;;;15.30;1.97;;;;;;;;;;5014231;28;20037;-59
2021/04/02 12:54:27;;;;;;;11.93;2.13;;;;;;;;;;5017751;28;20099;-59
2021/04/02 12:56:52;;;;;;;15.80;3.47;;;;;;;;;;5018441;28;20014;-59
2021/04/02 12:59:17;;;;;;;12.43;2.40;;;;;;;;;;5014482;28;20091;-59
2021/04/02 13:01:43;;;;;;;15.87;3.00;;;;;;;;;;5014910;28;20041;-60
2021/04/02 13:04:08;;;;;;;8.27;2.10;;;;;;;;;;5014448;28;20046;-59
2021/04/02 13:06:33;;;;;;;12.13;2.13;;;;;;;;;;5014069;28;20091;-60
2021/04/02 13:09:01;;;;;;;12.80;2.60;;;;;;;;;;5015191;28;20029;-58
2021/04/02 13:11:26;;;;;;;5.05;1.23;;;;;;;;;;5018084;28;20109;-59
2021/04/02 13:13:52;;;;;;;7.90;2.17;;;;;;;;;;5017164;28;20054;-61
2021/04/02 13:16:17;;;;;;;17.70;2.43;;;;;;;;;;5014179;28;20117;-59
2021/04/02 13:18:42;;;;;;;9.27;2.60;;;;;;;;;;5014458;28;20049;-61
2021/04/02 13:21:08;;;;;;;7.00;2.20;;;;;;;;;;5015237;28;20062;-58
2021/04/02 13:23:33;;;;;;;6.40;2.00;;;;;;;;;;5015922;28;20072;-59
2021/04/02 13:25:59;;;;;;;11.60;2.43;;;;;;;;;;5012046;28;20109;-58
2021/04/02 13:28:24;;;;;;;8.23;1.67;;;;;;;;;;5012256;28;20466;-59
2021/04/02 13:30:50;;;;;;;15.93;3.97;;;;;;;;;;5012584;28;20041;-60
2021/04/02 13:33:17;;;;;;;9.85;2.20;;;;;;;;;;5011850;28;20030;-59
2021/04/02 13:35:42;;;;;;;8.32;2.22;;;;;;;;;;5011900;28;20462;-59
2021/04/02 13:38:07;;;;;;;7.23;2.57;;;;;;;;;;5011554;28;20022;-57
2021/04/02 13:40:33;;;;;;;10.10;2.57;;;;;;;;;;5012026;28;20429;-59
2021/04/02 13:42:59;;;;;;;12.37;1.90;;;;;;;;;;5010117;28;20034;-59
2021/04/02 13:45:24;;;;;;;14.98;4.57;;;;;;;;;;5011385;28;20022;-59
2021/04/02 13:47:50;;;;;;;14.57;2.53;;;;;;;;;;5012141;28;20474;-58
2021/04/02 13:50:25;;;;;;;8.80;2.40;;;;;;;;;;5010466;28;20133;-60
2021/04/02 13:52:51;;;;;;;7.68;2.03;;;;;;;;;;5014339;28;20113;-59
2021/04/02 13:55:17;;;;;;;6.83;2.10;;;;;;;;;;5015226;28;20308;-58
2021/04/02 13:57:42;;;;;;;8.55;1.92;;;;;;;;;;5015760;28;20037;-56
2021/04/02 14:00:09;;;;;;;11.17;2.20;;;;;;;;;;5015441;28;20041;-59
2021/04/02 14:02:41;;;;;;;11.35;2.60;;;;;;;;;;5030236;28;20017;-58
2021/04/02 14:05:07;;;;;;;11.50;2.97;;;;;;;;;;5023700;28;20056;-59
2021/04/02 14:07:32;;;;;;;13.15;3.88;;;;;;;;;;5014520;28;20033;-60
2021/04/02 14:09:58;;;;;;;13.03;2.47;;;;;;;;;;5015776;28;20477;-59
2021/04/02 14:12:24;;;;;;;17.77;3.97;;;;;;;;;;5015445;28;20346;-60
2021/04/02 14:14:50;;;;;;;10.10;1.88;;;;;;;;;;5015054;28;20427;-59
2021/04/02 14:17:15;;;;;;;11.43;2.20;;;;;;;;;;5015102;28;20033;-58
2021/04/02 14:19:41;;;;;;;12.35;2.20;;;;;;;;;;5015935;28;20105;-60
2021/04/02 14:22:06;;;;;;;13.13;2.30;;;;;;;;;;5015145;28;20430;-58
2021/04/02 14:24:32;;;;;;;6.40;2.70;;;;;;;;;;5015300;28;20379;-59
2021/04/02 14:26:57;;;;;;;9.48;3.92;;;;;;;;;;5015032;28;20405;-59
2021/04/02 14:29:23;;;;;;;13.03;4.23;;;;;;;;;;5012723;28;20082;-59
2021/04/02 14:31:49;;;;;;;9.67;2.20;;;;;;;;;;5019333;28;20466;-59
2021/04/02 14:34:14;;;;;;;8.75;3.08;;;;;;;;;;5022848;28;20390;-59